Jefferson City, MO

2:46 AM CDT on September 01, 2014 (GMT -0500)
Jefferson City Memorial | Change Station
CLOSE
Current Station
Airport
Location: Jefferson City,
Elevation: 548 ft
Nearby Weather Stations

Elev 548 ft 38.59 °N, 92.16 °W | Updated 45 minutes ago

Overcast
Overcast
76 °F
Feels Like 76 °F
N
18
Wind Variable Wind from WNW
Gusts 26 mph

Today
High -- | Low -- °F
--% Chance of Precip.
Yesterday
High -- | Low -- °F
Precip. -- in
6:37 AM 7:38 PM
Waxing Crescent, 38% visible
Pressure 29.91 in
Visibility 10.0 miles
Clouds Few 4100 ft
Mostly Cloudy 8000 ft
Overcast 9000 ft
Dew Point 62 °F
Humidity 62%
Rainfall 0.00 in
Snow Depth Not available.
UV 0 out of 12
Pollen 10.00 out of 12
Air Quality Not available.
Flu Activity Not available.
SPECI KJEF 010701Z AUTO 30016G23KT 10SM FEW041 BKN080 OVC090 24/17 A2991 RMK AO2 WSHFT 0641 T02440167

More Conditions Fewer Conditions

Pressure 29.91 in
Visibility 10.0 miles
Clouds Few 4100 ft
Mostly Cloudy 8000 ft
Overcast 9000 ft
Dew Point 62 °F
Humidity 62%
Rainfall 0.00 in
Snow Depth Not available.
UV 0 out of 12
Pollen 10.00 out of 12
Air Quality Not available.
Flu Activity Not available.
SPECI KJEF 010701Z AUTO 30016G23KT 10SM FEW041 BKN080 OVC090 24/17 A2991 RMK AO2 WSHFT 0641 T02440167

More Conditions Fewer Conditions

10-Day Weather Forecast

Almanac

Astronomy

Sep. 01, 2014 Rise Set
Actual Time 6:37 AM CDT 7:38 PM CDT
Civil Twilight 6:10 AM CDT 8:05 PM CDT
Nautical Twilight 5:38 AM CDT 8:37 PM CDT
Astronomical Twilight 5:04 AM CDT 9:11 PM CDT
Moon 1:19 PM CDT 11:45 PM CDT
Length of Visible Light 13h 54m
Length of Day
13h 00m
Tomorrow will be 2m 23s shorter.
Waxing Crescent, 38% of the Moon is Illuminated
Today
Waxing Crescent
Sep 2
First Quarter
Sep 8
Full
Sep 15
Last Quarter
Sep 24
New

Today's Extremes

State Highs State Lows

Community

WunderPhotos

Upload Photos

1,749,154 photos uploaded!

Nearby

Snow Depth

Station Depth Elevation
No new snow has been reported.

Earthquake Activity

City Distance Mag. Time & Date
No recent earthquake activity has been reported nearby.
Minimum magnitude displayed is 2.5.

Coastal Water Temperatures

Place Temperature
No Stations Reporting

Nearby Weather Stations